createdAt,value
2022-08-30T00:02:55.045Z,52.26
2022-08-30T00:05:56.622Z,52.63
2022-08-30T00:08:58.193Z,52.69
2022-08-30T00:12:00.079Z,54.98
2022-08-30T00:15:02.170Z,54.38
2022-08-30T00:18:03.921Z,54.68
2022-08-30T00:21:06.649Z,53.73
2022-08-30T00:24:08.087Z,55.38
2022-08-30T00:27:09.575Z,53.70
2022-08-30T00:30:12.147Z,54.81
2022-08-30T00:33:14.914Z,53.49
2022-08-30T00:36:16.469Z,54.55
2022-08-30T00:39:17.902Z,53.91
2022-08-30T00:42:21.411Z,53.93
2022-08-30T00:45:26.955Z,53.96
2022-08-30T00:48:28.403Z,53.84
2022-08-30T00:51:31.736Z,56.00
2022-08-30T00:54:36.078Z,54.15
2022-08-30T00:57:37.701Z,56.41
2022-08-30T01:00:40.011Z,59.00
2022-08-30T01:03:43.397Z,62.62
2022-08-30T01:06:44.793Z,64.88
2022-08-30T01:09:46.281Z,68.62
2022-08-30T01:12:48.498Z,72.38
2022-08-30T01:15:51.235Z,76.40
2022-08-30T01:18:57.065Z,79.28
2022-08-30T01:22:02.958Z,82.13
2022-08-30T01:25:08.268Z,85.24
2022-08-30T01:28:14.198Z,90.69
2022-08-30T01:31:16.336Z,95.47
2022-08-30T01:34:18.142Z,97.47
2022-08-30T01:37:23.776Z,95.46
2022-08-30T01:40:25.520Z,99.29
2022-08-30T01:43:27.736Z,100.00
2022-08-30T01:46:36.620Z,99.03
2022-08-30T01:49:38.891Z,100.00
2022-08-30T01:52:40.346Z,100.00
2022-08-30T01:55:42.410Z,100.00
2022-08-30T01:58:44.408Z,100.00
2022-08-30T02:01:45.951Z,100.00
2022-08-30T02:04:47.478Z,100.00
2022-08-30T02:07:48.931Z,100.00
2022-08-30T02:10:50.428Z,100.00
2022-08-30T02:13:51.891Z,100.00
2022-08-30T02:16:53.414Z,100.00
2022-08-30T02:19:55.221Z,100.00
2022-08-30T02:22:59.683Z,100.00
2022-08-30T02:26:03.681Z,100.00
2022-08-30T02:29:06.026Z,100.00
2022-08-30T02:32:07.468Z,100.00
2022-08-30T02:35:09.492Z,100.00
2022-08-30T02:38:11.392Z,100.00
2022-08-30T02:41:13.250Z,100.00
2022-08-30T02:44:15.252Z,100.00
2022-08-30T02:47:16.799Z,100.00
2022-08-30T02:50:18.463Z,100.00
2022-08-30T02:53:21.103Z,100.00
2022-08-30T02:56:22.573Z,100.00
2022-08-30T02:59:23.977Z,100.00
2022-08-30T03:02:25.974Z,100.00
2022-08-30T03:05:27.699Z,100.00
2022-08-30T03:08:30.034Z,100.00
2022-08-30T03:11:31.671Z,100.00
2022-08-30T03:14:35.448Z,100.00
2022-08-30T03:17:36.953Z,100.00
2022-08-30T03:20:38.725Z,100.00
2022-08-30T03:23:41.140Z,100.00
2022-08-30T03:26:46.171Z,100.00
2022-08-30T03:29:48.075Z,100.00
2022-08-30T03:32:49.547Z,100.00
2022-08-30T03:35:52.904Z,100.00
2022-08-30T03:38:54.402Z,100.00
2022-08-30T03:41:55.837Z,100.00
2022-08-30T03:44:57.218Z,100.00
2022-08-30T03:47:59.064Z,100.00
2022-08-30T03:51:00.532Z,100.00
2022-08-30T03:54:02.781Z,100.00
2022-08-30T03:57:04.545Z,100.00
2022-08-30T04:00:07.367Z,100.00
2022-08-30T04:03:09.266Z,100.00
2022-08-30T04:06:10.774Z,100.00
2022-08-30T04:09:12.252Z,100.00
2022-08-30T04:12:13.691Z,100.00
2022-08-30T04:15:20.400Z,100.00
2022-08-30T04:18:22.028Z,100.00
2022-08-30T04:21:23.517Z,100.00
2022-08-30T04:24:25.387Z,100.00
2022-08-30T04:27:26.802Z,100.00
2022-08-30T04:30:28.280Z,100.00
2022-08-30T04:33:29.750Z,100.00
2022-08-30T04:36:36.287Z,100.00
2022-08-30T04:39:37.741Z,100.00
2022-08-30T04:42:39.678Z,100.00
2022-08-30T04:45:42.037Z,100.00
2022-08-30T04:48:43.876Z,100.00
2022-08-30T04:51:46.220Z,100.00
2022-08-30T04:54:47.652Z,100.00
2022-08-30T04:57:49.460Z,100.00
2022-08-30T05:00:51.066Z,100.00
2022-08-30T05:03:54.565Z,100.00
2022-08-30T05:06:56.675Z,100.00
2022-08-30T05:09:58.425Z,100.00
2022-08-30T05:13:00.468Z,100.00
2022-08-30T05:16:03.784Z,100.00
2022-08-30T05:19:05.472Z,100.00
2022-08-30T05:22:06.909Z,100.00
2022-08-30T05:25:08.989Z,100.00
2022-08-30T05:28:10.568Z,100.00
2022-08-30T05:31:33.034Z,100.00
2022-08-30T05:34:34.739Z,100.00
2022-08-30T05:37:36.806Z,100.00
2022-08-30T05:40:44.040Z,100.00
2022-08-30T05:43:45.550Z,100.00
2022-08-30T05:46:47.909Z,100.00
2022-08-30T05:49:49.579Z,100.00
2022-08-30T05:52:50.991Z,100.00
2022-08-30T05:55:54.653Z,100.00
2022-08-30T05:58:56.076Z,100.00
2022-08-30T06:01:58.512Z,100.00
2022-08-30T06:05:02.514Z,100.00
2022-08-30T06:08:04.685Z,100.00
2022-08-30T06:11:06.147Z,100.00
2022-08-30T06:14:08.117Z,100.00
2022-08-30T06:17:10.602Z,100.00
2022-08-30T06:20:12.286Z,100.00
2022-08-30T06:23:14.330Z,100.00
2022-08-30T06:26:16.644Z,100.00
2022-08-30T06:29:21.193Z,100.00
2022-08-30T06:32:22.755Z,100.00
2022-08-30T06:35:25.454Z,100.00
2022-08-30T06:38:27.587Z,100.00
2022-08-30T06:41:32.085Z,100.00
2022-08-30T06:44:33.472Z,100.00
2022-08-30T06:47:35.010Z,100.00
2022-08-30T06:50:36.430Z,100.00
2022-08-30T06:53:39.301Z,100.00
2022-08-30T06:56:57.566Z,100.00
2022-08-30T06:59:59.848Z,100.00
2022-08-30T07:03:02.509Z,100.00
2022-08-30T07:06:04.468Z,100.00
2022-08-30T07:09:06.251Z,100.00
2022-08-30T07:12:08.621Z,100.00
2022-08-30T07:15:10.564Z,100.00
2022-08-30T07:18:31.907Z,100.00
2022-08-30T07:21:45.666Z,100.00
2022-08-30T07:24:47.396Z,100.00
2022-08-30T07:27:51.808Z,100.00
2022-08-30T07:30:53.268Z,100.00
2022-08-30T07:33:54.978Z,100.00
2022-08-30T07:36:56.497Z,100.00
2022-08-30T07:39:58.092Z,100.00
2022-08-30T07:43:02.156Z,100.00
2022-08-30T07:46:07.634Z,100.00
2022-08-30T07:49:11.528Z,100.00
2022-08-30T07:52:13.106Z,100.00
2022-08-30T07:55:15.065Z,100.00
2022-08-30T07:58:16.851Z,100.00
2022-08-30T08:01:19.646Z,100.00
2022-08-30T08:04:21.223Z,100.00
2022-08-30T08:07:22.801Z,100.00
2022-08-30T08:10:24.304Z,100.00
2022-08-30T08:13:27.914Z,100.00
2022-08-30T08:16:30.958Z,100.00
2022-08-30T08:19:32.478Z,98.75
2022-08-30T08:22:36.867Z,97.64
2022-08-30T08:25:41.590Z,89.20
2022-08-30T08:28:44.970Z,85.48
2022-08-30T08:31:47.081Z,82.05
2022-08-30T08:34:48.935Z,75.13
2022-08-30T08:37:50.409Z,73.26
2022-08-30T08:41:15.046Z,72.18
2022-08-30T08:44:39.358Z,72.65
2022-08-30T08:48:06.266Z,68.53
2022-08-30T08:51:30.607Z,66.24
2022-08-30T08:54:49.955Z,65.71
2022-08-30T08:57:52.488Z,66.69
2022-08-30T09:00:57.223Z,64.32
2022-08-30T09:04:03.566Z,63.56
2022-08-30T09:07:14.478Z,61.03
2022-08-30T09:10:18.370Z,62.84
2022-08-30T09:13:25.465Z,61.64
2022-08-30T09:16:47.102Z,59.09
2022-08-30T09:19:59.982Z,57.76
2022-08-30T09:23:24.230Z,58.34
2022-08-30T09:26:32.944Z,58.57
2022-08-30T09:29:34.548Z,58.95
2022-08-30T09:32:42.846Z,57.89
2022-08-30T09:35:47.643Z,57.20
2022-08-30T09:38:59.051Z,56.51
2022-08-30T09:42:15.196Z,55.63
2022-08-30T09:45:31.806Z,54.50
2022-08-30T09:48:35.251Z,54.40
2022-08-30T09:51:59.042Z,54.97
2022-08-30T09:55:29.149Z,52.07
2022-08-30T09:58:38.920Z,55.25
2022-08-30T10:01:46.220Z,51.85
2022-08-30T10:05:05.469Z,52.00
2022-08-30T10:08:16.554Z,50.34
2022-08-30T10:11:45.999Z,50.42
2022-08-30T10:15:09.240Z,51.62
2022-08-30T10:18:26.585Z,49.78
2022-08-30T10:21:39.227Z,48.95
2022-08-30T10:24:50.312Z,46.25
2022-08-30T10:28:00.684Z,46.57
2022-08-30T10:31:08.128Z,46.04
2022-08-30T10:34:17.763Z,45.41
2022-08-30T10:37:31.488Z,44.21
2022-08-30T10:40:56.498Z,43.67
2022-08-30T10:44:11.938Z,39.77
2022-08-30T10:47:36.984Z,41.48
2022-08-30T10:50:48.169Z,42.06
2022-08-30T10:54:34.090Z,43.67
2022-08-30T10:57:35.901Z,40.64
2022-08-30T11:01:06.031Z,40.38
2022-08-30T11:04:31.935Z,41.93
2022-08-30T11:07:58.188Z,38.57
2022-08-30T11:11:13.011Z,38.47
2022-08-30T11:14:17.477Z,40.63
2022-08-30T11:17:31.149Z,39.12
2022-08-30T11:20:41.961Z,38.83
2022-08-30T11:24:17.922Z,39.47
2022-08-30T11:27:44.058Z,38.87
2022-08-30T11:30:46.945Z,39.36
2022-08-30T11:33:51.350Z,37.60
2022-08-30T11:36:52.749Z,37.03
2022-08-30T11:39:56.125Z,37.19
2022-08-30T11:42:57.555Z,40.03
2022-08-30T11:46:24.113Z,36.53
2022-08-30T11:49:26.013Z,40.35
2022-08-30T11:52:46.755Z,36.75
2022-08-30T11:56:08.564Z,35.48
2022-08-30T11:59:23.941Z,36.87
2022-08-30T12:03:03.670Z,38.71
2022-08-30T12:06:07.790Z,35.23
2022-08-30T12:09:12.577Z,34.93
2022-08-30T12:12:26.515Z,36.53
2022-08-30T12:15:56.237Z,37.67
2022-08-30T12:19:10.305Z,37.51
2022-08-30T12:22:17.882Z,38.04
2022-08-30T12:25:26.498Z,39.06
2022-08-30T12:28:27.988Z,41.55
2022-08-30T12:31:29.495Z,40.59
2022-08-30T12:34:34.077Z,36.08
2022-08-30T12:37:38.573Z,36.53
2022-08-30T12:40:56.398Z,37.06
2022-08-30T12:43:59.041Z,38.31
2022-08-30T12:47:04.019Z,42.67
2022-08-30T12:50:06.885Z,36.80
2022-08-30T12:53:14.387Z,38.35
2022-08-30T12:56:21.204Z,35.65
2022-08-30T12:59:48.852Z,36.12
2022-08-30T13:02:57.276Z,39.39
2022-08-30T13:05:59.525Z,35.64
2022-08-30T13:09:04.369Z,36.63
2022-08-30T13:12:10.728Z,40.44
2022-08-30T13:15:17.320Z,42.84
2022-08-30T13:18:30.089Z,37.39
2022-08-30T13:21:34.172Z,38.26
2022-08-30T13:24:35.610Z,37.05
2022-08-30T13:27:38.987Z,35.35
2022-08-30T13:30:41.446Z,36.80
2022-08-30T13:33:45.730Z,37.11
2022-08-30T13:36:50.768Z,38.80
2022-08-30T13:39:52.512Z,37.79
2022-08-30T13:42:54.721Z,39.38
2022-08-30T13:45:58.131Z,34.86
2022-08-30T13:49:05.941Z,35.96
2022-08-30T13:52:24.038Z,36.06
2022-08-30T13:55:25.789Z,36.24
2022-08-30T13:58:27.264Z,35.22
2022-08-30T14:01:30.208Z,34.92
2022-08-30T14:04:51.429Z,34.19
2022-08-30T14:07:52.862Z,35.46
2022-08-30T14:10:55.472Z,34.61
2022-08-30T14:17:18.711Z,33.61
2022-08-30T14:20:20.814Z,33.17
2022-08-30T14:23:22.267Z,34.75
2022-08-30T14:26:33.561Z,35.28
2022-08-30T14:29:36.085Z,32.93
2022-08-30T14:32:37.802Z,32.76
2022-08-30T14:35:39.271Z,32.81
2022-08-30T14:38:40.772Z,33.28
2022-08-30T14:41:46.856Z,33.00
2022-08-30T14:44:56.373Z,32.93
2022-08-30T14:47:58.389Z,33.63
2022-08-30T14:51:00.630Z,33.46
2022-08-30T14:54:02.066Z,33.16
2022-08-30T14:57:03.662Z,35.88
2022-08-30T15:00:08.544Z,35.14
2022-08-30T15:03:11.972Z,35.26
2022-08-30T15:06:13.471Z,33.18
2022-08-30T15:09:19.094Z,34.41
2022-08-30T15:12:24.933Z,33.64
2022-08-30T15:15:26.533Z,33.27
2022-08-30T15:18:27.998Z,32.84
2022-08-30T15:21:39.001Z,31.85
2022-08-30T15:24:40.864Z,32.54
2022-08-30T15:27:42.336Z,32.71
2022-08-30T15:30:44.304Z,32.83
2022-08-30T15:33:46.033Z,31.95
2022-08-30T15:36:48.277Z,34.48
2022-08-30T15:39:52.672Z,34.35
2022-08-30T15:42:54.217Z,33.59
2022-08-30T15:45:56.172Z,32.97
2022-08-30T15:49:04.576Z,32.19
2022-08-30T15:52:06.169Z,32.75
2022-08-30T15:55:10.274Z,33.53
2022-08-30T15:58:11.742Z,32.42
2022-08-30T16:01:14.534Z,31.94
2022-08-30T16:04:18.485Z,32.96
2022-08-30T16:07:20.204Z,32.49
2022-08-30T16:10:21.628Z,33.29
2022-08-30T16:13:23.081Z,35.40
2022-08-30T16:16:27.287Z,36.42
2022-08-30T16:19:29.084Z,36.02
2022-08-30T16:22:30.782Z,35.43
2022-08-30T16:25:40.064Z,34.16
2022-08-30T16:28:42.786Z,37.47
2022-08-30T16:31:45.460Z,36.22
2022-08-30T16:34:49.828Z,39.37
2022-08-30T16:37:51.457Z,35.68
2022-08-30T16:40:53.037Z,38.60
2022-08-30T16:43:55.124Z,35.35
2022-08-30T16:46:57.050Z,35.56
2022-08-30T16:50:01.617Z,34.20
2022-08-30T16:53:03.261Z,37.19
2022-08-30T16:56:09.943Z,39.13
2022-08-30T16:59:13.085Z,35.30
2022-08-30T17:02:14.607Z,36.85
2022-08-30T17:05:16.056Z,35.91
2022-08-30T17:08:17.632Z,37.32
2022-08-30T17:11:20.012Z,38.02
2022-08-30T17:14:28.083Z,35.56
2022-08-30T17:17:30.784Z,39.83
2022-08-30T17:20:33.406Z,36.66
2022-08-30T17:23:36.026Z,36.20
2022-08-30T17:26:39.941Z,38.72
2022-08-30T17:29:41.834Z,37.09
2022-08-30T17:32:43.480Z,39.42
2022-08-30T17:35:45.781Z,38.31
2022-08-30T17:38:48.107Z,37.03
2022-08-30T17:41:51.712Z,36.81
2022-08-30T17:44:54.497Z,37.40
2022-08-30T17:47:56.917Z,37.30
2022-08-30T17:51:00.603Z,40.20
2022-08-30T17:54:02.130Z,39.60
2022-08-30T17:57:10.673Z,39.13
2022-08-30T18:00:15.693Z,39.42
2022-08-30T18:03:17.502Z,40.53
2022-08-30T18:06:19.187Z,40.41
2022-08-30T18:09:22.436Z,40.65
2022-08-30T18:12:23.950Z,40.75
2022-08-30T18:15:28.370Z,40.83
2022-08-30T18:18:30.917Z,40.90
2022-08-30T18:21:34.739Z,41.56
2022-08-30T18:24:36.256Z,42.55
2022-08-30T18:27:39.069Z,40.78
2022-08-30T18:30:42.404Z,40.71
2022-08-30T18:33:44.031Z,40.26
2022-08-30T18:36:45.555Z,40.17
2022-08-30T18:39:48.321Z,40.54
2022-08-30T18:42:51.830Z,40.37
2022-08-30T18:45:54.338Z,40.02
2022-08-30T18:48:55.864Z,39.86
2022-08-30T18:51:58.376Z,39.67
2022-08-30T18:54:59.934Z,39.07
2022-08-30T18:58:02.542Z,40.44
2022-08-30T19:01:04.486Z,40.46
2022-08-30T19:04:06.066Z,39.22
2022-08-30T19:07:09.875Z,39.61
2022-08-30T19:10:15.113Z,39.67
2022-08-30T19:13:22.607Z,40.18
2022-08-30T19:16:25.641Z,40.07
2022-08-30T19:19:27.326Z,40.59
2022-08-30T19:22:39.860Z,42.29
2022-08-30T19:25:51.612Z,43.58
2022-08-30T19:28:54.891Z,46.08
2022-08-30T19:31:56.760Z,48.46
2022-08-30T19:34:58.720Z,47.49
2022-08-30T19:38:00.350Z,48.68
2022-08-30T19:41:03.436Z,48.72
2022-08-30T19:44:06.301Z,50.64
2022-08-30T19:47:08.137Z,51.28
2022-08-30T19:50:09.789Z,52.16
2022-08-30T19:53:11.758Z,55.95
2022-08-30T19:56:13.484Z,58.37
2022-08-30T19:59:15.114Z,56.63
2022-08-30T20:02:18.237Z,55.53
2022-08-30T20:05:21.455Z,53.82
2022-08-30T20:08:23.029Z,57.06
2022-08-30T20:11:24.522Z,56.15
2022-08-30T20:14:26.122Z,51.64
2022-08-30T20:17:37.876Z,52.58
2022-08-30T20:20:49.559Z,49.58
2022-08-30T20:23:51.558Z,49.03
2022-08-30T20:26:53.540Z,52.65
2022-08-30T20:29:55.646Z,50.46
2022-08-30T20:32:57.279Z,48.67
2022-08-30T20:36:02.570Z,47.81
2022-08-30T20:39:09.413Z,47.01
2022-08-30T20:42:10.874Z,46.71
2022-08-30T20:45:16.150Z,47.09
2022-08-30T20:48:18.710Z,47.93
2022-08-30T20:51:23.016Z,48.46
2022-08-30T20:54:25.301Z,47.36
2022-08-30T20:57:26.979Z,47.85
2022-08-30T21:00:28.528Z,47.94
2022-08-30T21:03:33.365Z,48.58
2022-08-30T21:06:37.453Z,49.58
2022-08-30T21:09:39.059Z,49.26
2022-08-30T21:12:40.574Z,49.14
2022-08-30T21:15:45.814Z,49.46
2022-08-30T21:18:47.350Z,49.13
2022-08-30T21:21:48.842Z,49.21
2022-08-30T21:24:52.438Z,48.97
2022-08-30T21:27:54.850Z,50.62
2022-08-30T21:31:11.111Z,52.98
2022-08-30T21:34:17.215Z,52.89
2022-08-30T21:37:19.176Z,53.17
2022-08-30T21:40:21.104Z,52.68
2022-08-30T21:43:22.604Z,54.59
2022-08-30T21:46:25.740Z,52.95
2022-08-30T21:49:27.352Z,52.87
2022-08-30T21:52:28.883Z,52.11
2022-08-30T21:55:30.402Z,53.46
2022-08-30T21:58:31.828Z,56.33
2022-08-30T22:01:34.641Z,55.72
2022-08-30T22:04:41.147Z,56.33
2022-08-30T22:07:42.697Z,56.36
2022-08-30T22:10:44.692Z,58.07
2022-08-30T22:13:48.156Z,62.27
2022-08-30T22:16:49.779Z,62.01
2022-08-30T22:19:51.752Z,59.93
2022-08-30T22:22:53.199Z,59.58
2022-08-30T22:25:54.719Z,59.13
2022-08-30T22:28:56.317Z,59.36
2022-08-30T22:31:58.014Z,62.24
2022-08-30T22:34:59.516Z,63.06
2022-08-30T22:38:01.018Z,61.13
2022-08-30T22:41:02.676Z,62.06
2022-08-30T22:44:04.683Z,62.19
2022-08-30T22:47:06.312Z,60.72
2022-08-30T22:50:08.146Z,61.51
2022-08-30T22:53:09.749Z,62.90
2022-08-30T22:56:14.428Z,62.23
2022-08-30T22:59:15.995Z,60.96
2022-08-30T23:02:17.976Z,59.41
2022-08-30T23:05:22.138Z,60.01
2022-08-30T23:08:24.009Z,64.40
2022-08-30T23:11:26.127Z,64.29
2022-08-30T23:14:27.573Z,63.28
2022-08-30T23:17:29.068Z,61.02
2022-08-30T23:20:34.869Z,59.68
2022-08-30T23:23:54.602Z,61.54
2022-08-30T23:27:14.801Z,61.37
2022-08-30T23:30:34.739Z,62.67
2022-08-30T23:33:54.970Z,64.32
2022-08-30T23:37:15.154Z,64.97
2022-08-30T23:40:35.572Z,64.11
2022-08-30T23:43:56.194Z,66.63
2022-08-30T23:47:16.439Z,64.89
2022-08-30T23:50:36.996Z,61.73
2022-08-30T23:53:57.378Z,62.42
2022-08-30T23:57:17.648Z,63.03
